Time;durP1;ratioP1;P1;durP2;ratioP2;P2;SDS_P1;SDS_P2;PMS_P1;PMS_P2;Temp;Humidity;BMP_temperature;BMP_pressure;BME280_temperature;BME280_humidity;BME280_pressure;Samples;Min_cycle;Max_cycle;Signal;HPM_P1;HPM_P2
2023/01/22 00:05:14;;;;;;;36.70;21.50;;;1.10;99.90;;;;;;2611967;54;20395;-68
2023/01/22 00:11:01;;;;;;;34.20;21.80;;;1.20;99.90;;;;;;2610117;54;21196;-68
2023/01/22 00:16:49;;;;;;;31.70;22.30;;;1.20;99.90;;;;;;2612490;54;20818;-69
2023/01/22 00:22:37;;;;;;;26.73;18.63;;;1.20;99.90;;;;;;2612960;54;20287;-67
2023/01/22 00:28:24;;;;;;;29.10;16.87;;;1.20;99.90;;;;;;2612284;54;20131;-68
2023/01/22 00:34:12;;;;;;;30.80;20.43;;;1.20;99.90;;;;;;2613230;54;20138;-70
2023/01/22 00:40:00;;;;;;;25.33;19.00;;;1.20;99.90;;;;;;2612582;54;20139;-69
2023/01/22 00:45:48;;;;;;;30.73;22.20;;;1.20;99.90;;;;;;2612845;54;20378;-69
2023/01/22 00:51:38;;;;;;;27.50;18.97;;;1.20;99.90;;;;;;2612644;54;20157;-69
2023/01/22 00:57:25;;;;;;;30.57;20.87;;;1.10;99.90;;;;;;2613680;54;20495;-69
2023/01/22 01:00:42;;;;;;;27.07;19.97;;;1.10;99.90;;;;;;2611996;49;20395;-68
2023/01/22 01:09:14;;;;;;;30.17;17.93;;;1.10;99.90;;;;;;2612459;54;20378;-70
2023/01/22 01:15:02;;;;;;;27.63;20.80;;;1.10;99.90;;;;;;2612450;54;20134;-69
2023/01/22 01:20:57;;;;;;;27.03;18.70;;;1.00;99.90;;;;;;2612932;39;20323;-67
2023/01/22 01:26:44;;;;;;;29.73;18.90;;;1.10;99.90;;;;;;2613541;46;20418;-70
2023/01/22 01:32:32;;;;;;;27.83;21.07;;;1.10;99.90;;;;;;2612613;54;20130;-69
2023/01/22 01:38:20;;;;;;;29.80;19.03;;;1.10;99.90;;;;;;2611692;54;20721;-67
2023/01/22 01:44:15;;;;;;;30.47;18.33;;;1.10;99.90;;;;;;2612240;54;20944;-69
2023/01/22 01:50:03;;;;;;;27.07;19.80;;;1.10;99.90;;;;;;2612601;54;20395;-70
2023/01/22 01:55:51;;;;;;;24.47;17.40;;;1.10;99.90;;;;;;2612685;54;20897;-69
2023/01/22 02:05:19;;;;;;;25.10;17.20;;;1.10;99.90;;;;;;2612788;54;20399;-68
2023/01/22 02:11:08;;;;;;;23.87;17.67;;;1.10;99.90;;;;;;2611792;54;20470;-70
2023/01/22 02:23:44;;;;;;;19.40;14.33;;;1.10;99.90;;;;;;2611480;54;21024;-69
2023/01/22 02:29:31;;;;;;;25.67;16.53;;;1.10;99.90;;;;;;2610873;54;20196;-68
2023/01/22 02:35:18;;;;;;;25.37;20.23;;;1.10;99.90;;;;;;2611593;39;20592;-69
2023/01/22 02:41:06;;;;;;;25.93;17.60;;;1.10;99.90;;;;;;2610172;54;20135;-69
2023/01/22 02:46:53;;;;;;;21.77;16.63;;;1.00;99.90;;;;;;2610752;54;20169;-68
2023/01/22 02:52:40;;;;;;;24.30;18.37;;;1.10;99.90;;;;;;2611384;54;20387;-69
2023/01/22 02:58:27;;;;;;;25.57;18.50;;;1.00;99.90;;;;;;2613028;54;20134;-69
2023/01/22 03:04:21;;;;;;;22.33;16.20;;;1.10;99.90;;;;;;2611886;39;20647;-70
2023/01/22 03:10:14;;;;;;;23.90;17.10;;;1.00;99.90;;;;;;2612339;46;20390;-69
2023/01/22 03:22:09;;;;;;;24.53;15.93;;;0.90;99.90;;;;;;2614114;54;20387;-70
2023/01/22 03:34:03;;;;;;;19.57;14.03;;;0.80;99.90;;;;;;2613205;54;20547;-72
2023/01/22 03:39:51;;;;;;;26.47;15.80;;;0.70;99.90;;;;;;2614329;39;21226;-70
2023/01/22 03:45:39;;;;;;;18.30;15.00;;;0.60;99.90;;;;;;2614016;54;20668;-70
2023/01/22 03:51:26;;;;;;;18.97;13.50;;;0.60;99.90;;;;;;2612907;54;20228;-70
2023/01/22 03:57:14;;;;;;;19.77;15.40;;;0.60;99.90;;;;;;2613565;54;20162;-71
2023/01/22 04:03:02;;;;;;;21.87;15.33;;;0.60;99.90;;;;;;2612662;54;20435;-71
2023/01/22 04:08:53;;;;;;;20.50;15.33;;;0.50;99.90;;;;;;2614450;54;20586;-71
2023/01/22 04:14:40;;;;;;;21.97;15.17;;;0.50;99.90;;;;;;2614183;54;20416;-71
2023/01/22 04:20:28;;;;;;;26.33;15.93;;;0.40;99.90;;;;;;2614803;39;20542;-72
2023/01/22 04:26:16;;;;;;;22.40;16.10;;;0.40;99.90;;;;;;2613842;54;20160;-72
2023/01/22 04:32:04;;;;;;;24.20;15.63;;;0.40;99.90;;;;;;2614491;54;20175;-69
2023/01/22 04:37:51;;;;;;;20.30;14.00;;;0.40;99.90;;;;;;2614501;54;20131;-71
2023/01/22 04:43:39;;;;;;;23.77;16.70;;;0.40;99.90;;;;;;2613686;54;20145;-71
2023/01/22 04:49:27;;;;;;;22.70;13.97;;;0.40;99.90;;;;;;2614617;54;20130;-71
2023/01/22 04:52:30;;;;;;;24.23;16.53;;;0.40;99.90;;;;;;2613712;47;20945;-71
2023/01/22 04:54:56;;;;;;;23.00;16.20;;;0.40;99.90;;;;;;2613700;47;20668;-70
2023/01/22 05:00:44;;;;;;;22.13;15.97;;;0.40;99.90;;;;;;2613218;54;20130;-70
2023/01/22 05:06:31;;;;;;;26.30;17.20;;;0.40;99.90;;;;;;2614300;54;20403;-72
2023/01/22 05:12:19;;;;;;;22.10;15.80;;;0.40;99.90;;;;;;2613719;54;20138;-72
2023/01/22 05:18:07;;;;;;;26.07;16.77;;;0.50;99.90;;;;;;2613559;54;20163;-70
2023/01/22 05:23:55;;;;;;;21.40;15.13;;;0.40;99.90;;;;;;2614966;39;20659;-71
2023/01/22 05:29:42;;;;;;;26.67;17.13;;;0.40;99.90;;;;;;2613078;54;21089;-70
2023/01/22 05:35:30;;;;;;;43.83;16.10;;;0.50;99.90;;;;;;2612348;54;20154;-72
2023/01/22 05:41:18;;;;;;;22.07;15.93;;;0.50;99.90;;;;;;2613620;54;20151;-70
2023/01/22 05:47:06;;;;;;;22.30;15.23;;;0.60;99.90;;;;;;2614403;54;20126;-70
2023/01/22 05:52:54;;;;;;;22.20;15.47;;;0.60;99.90;;;;;;2614373;54;20387;-70
2023/01/22 05:58:43;;;;;;;21.20;15.07;;;0.70;99.90;;;;;;2614008;54;20387;-72
2023/01/22 06:07:53;;;;;;;25.13;17.87;;;0.60;99.90;;;;;;2614453;54;20377;-71
2023/01/22 06:13:41;;;;;;;27.73;15.93;;;0.70;99.90;;;;;;2614127;54;20134;-69
2023/01/22 06:19:29;;;;;;;22.77;14.23;;;0.70;99.90;;;;;;2613986;54;20410;-70
2023/01/22 06:25:16;;;;;;;24.70;13.83;;;0.70;99.90;;;;;;2614440;54;20134;-70
2023/01/22 06:31:06;;;;;;;21.70;14.20;;;0.70;99.90;;;;;;2613449;54;20158;-72
2023/01/22 06:36:53;;;;;;;18.87;14.97;;;0.70;99.90;;;;;;2614077;54;20426;-71
2023/01/22 06:42:41;;;;;;;23.57;14.63;;;0.70;99.90;;;;;;2613660;54;20151;-71
2023/01/22 06:48:29;;;;;;;17.63;13.33;;;0.70;99.90;;;;;;2612916;54;20138;-70
2023/01/22 06:54:17;;;;;;;17.93;13.70;;;0.60;99.90;;;;;;2614436;54;20632;-72
2023/01/22 07:00:06;;;;;;;23.20;14.37;;;0.60;99.90;;;;;;2614264;39;20521;-72
2023/01/22 07:03:15;;;;;;;22.03;15.50;;;0.50;99.90;;;;;;2612657;54;20414;-71
2023/01/22 07:05:41;;;;;;;19.10;13.60;;;0.50;99.90;;;;;;2613077;31;20897;-74
2023/01/22 07:11:29;;;;;;;18.23;13.50;;;0.50;99.90;;;;;;2613047;54;20391;-71
2023/01/22 07:17:16;;;;;;;17.50;13.30;;;0.50;99.90;;;;;;2613773;54;20203;-71
2023/01/22 07:23:04;;;;;;;18.70;14.70;;;0.50;99.90;;;;;;2612835;54;20130;-73
2023/01/22 07:28:52;;;;;;;20.13;14.63;;;0.50;99.90;;;;;;2613422;54;20159;-73
2023/01/22 07:34:39;;;;;;;25.07;14.00;;;0.60;99.90;;;;;;2612839;39;20246;-70
2023/01/22 07:40:27;;;;;;;21.50;14.60;;;0.60;99.90;;;;;;2612970;54;20134;-71
2023/01/22 07:46:15;;;;;;;18.40;12.53;;;0.60;99.90;;;;;;2611270;54;20250;-69
2023/01/22 07:52:02;;;;;;;21.47;13.77;;;0.60;99.90;;;;;;2614596;54;20386;-72
2023/01/22 08:07:47;;;;;;;19.27;12.73;;;0.70;99.90;;;;;;2614696;54;20399;-70
2023/01/22 08:13:35;;;;;;;18.70;14.47;;;0.80;99.90;;;;;;2614419;54;20399;-70
2023/01/22 08:19:23;;;;;;;17.57;12.70;;;0.80;99.90;;;;;;2614756;54;20122;-71
2023/01/22 08:25:10;;;;;;;23.47;15.57;;;0.80;99.90;;;;;;2613383;54;20148;-70
2023/01/22 08:30:59;;;;;;;20.67;12.73;;;0.90;99.90;;;;;;2615130;54;20238;-70
2023/01/22 08:36:47;;;;;;;19.67;12.97;;;0.90;99.90;;;;;;2614379;54;20439;-71
2023/01/22 08:42:35;;;;;;;20.23;15.03;;;0.90;99.90;;;;;;2615002;54;20384;-71
2023/01/22 08:48:23;;;;;;;19.57;13.27;;;0.90;99.90;;;;;;2613653;54;20553;-71
2023/01/22 08:54:11;;;;;;;18.67;13.33;;;0.90;99.90;;;;;;2614920;54;20143;-71
2023/01/22 08:59:58;;;;;;;23.60;16.37;;;1.00;99.90;;;;;;2615274;54;20562;-72
2023/01/22 09:03:15;;;;;;;25.60;16.07;;;1.10;99.90;;;;;;2613844;54;20527;-70
2023/01/22 09:05:40;;;;;;;25.20;14.73;;;1.10;99.90;;;;;;2613928;54;20151;-72
2023/01/22 09:11:28;;;;;;;20.57;14.87;;;1.10;99.90;;;;;;2614868;54;20134;-70
2023/01/22 09:17:16;;;;;;;20.37;14.47;;;1.20;99.90;;;;;;2614561;54;20411;-70
2023/01/22 09:23:04;;;;;;;26.67;17.30;;;1.20;99.90;;;;;;2614485;54;20158;-70
2023/01/22 09:28:51;;;;;;;19.40;14.53;;;1.30;99.90;;;;;;2614101;54;20130;-71
2023/01/22 09:34:39;;;;;;;22.80;14.07;;;1.20;99.90;;;;;;2614110;54;20134;-71
2023/01/22 09:40:31;;;;;;;22.67;15.80;;;1.20;99.90;;;;;;2614451;54;20118;-71
2023/01/22 09:52:50;;;;;;;20.73;14.17;;;1.30;99.90;;;;;;2614296;54;20398;-71
2023/01/22 09:58:39;;;;;;;19.03;13.60;;;1.30;99.90;;;;;;2613872;54;20383;-72
2023/01/22 10:07:59;;;;;;;17.43;13.80;;;1.30;99.90;;;;;;2613863;39;20704;-71
2023/01/22 10:13:50;;;;;;;20.43;15.63;;;1.40;99.90;;;;;;2614355;54;20388;-71
2023/01/22 10:19:44;;;;;;;22.00;13.77;;;1.30;99.90;;;;;;2613899;54;20400;-71
2023/01/22 10:25:32;;;;;;;18.63;14.80;;;1.30;99.90;;;;;;2611782;54;20398;-72
2023/01/22 10:31:21;;;;;;;26.70;15.80;;;1.40;99.90;;;;;;2613973;54;20508;-71
2023/01/22 10:37:17;;;;;;;17.17;12.90;;;1.40;99.90;;;;;;2614112;54;20548;-72
2023/01/22 10:43:15;;;;;;;21.17;13.90;;;1.40;99.90;;;;;;2613672;54;20429;-70
2023/01/22 10:49:07;;;;;;;16.80;13.80;;;1.50;99.90;;;;;;2614245;54;20399;-70
2023/01/22 10:52:10;;;;;;;18.10;13.60;;;1.40;99.90;;;;;;2613267;54;20410;-70
2023/01/22 10:54:39;;;;;;;21.40;13.97;;;1.40;99.90;;;;;;2613803;39;20743;-71
2023/01/22 11:00:35;;;;;;;20.73;13.80;;;1.50;99.90;;;;;;2613374;54;20423;-70
2023/01/22 11:06:41;;;;;;;18.00;13.97;;;1.60;99.90;;;;;;2611908;54;21328;-71
2023/01/22 11:12:33;;;;;;;23.77;15.97;;;1.60;99.90;;;;;;2610939;54;20372;-70
2023/01/22 11:18:34;;;;;;;21.07;16.23;;;1.60;99.90;;;;;;2610582;39;20911;-71
2023/01/22 11:24:29;;;;;;;24.90;18.40;;;1.70;99.90;;;;;;2611057;54;20392;-71
2023/01/22 12:01:09;;;;;;;21.60;17.03;;;1.90;99.90;;;;;;2612670;31;20851;-70
2023/01/22 12:23:52;;;;;;;23.37;18.77;;;2.00;99.90;;;;;;2611703;54;20383;-71
2023/01/22 12:29:44;;;;;;;20.13;17.47;;;2.00;99.90;;;;;;2613515;54;20378;-72
2023/01/22 12:35:32;;;;;;;22.87;17.20;;;2.10;99.90;;;;;;2613914;54;20416;-72
2023/01/22 12:41:24;;;;;;;20.57;17.40;;;2.00;99.90;;;;;;2612725;39;20545;-71
2023/01/22 12:47:37;;;;;;;23.80;17.67;;;2.00;99.90;;;;;;2613540;54;20993;-71
2023/01/22 12:53:33;;;;;;;23.23;18.60;;;1.90;99.90;;;;;;2613610;54;20399;-71
2023/01/22 12:59:38;;;;;;;22.80;18.80;;;2.00;99.90;;;;;;2613576;54;20395;-70
2023/01/22 13:05:29;;;;;;;21.70;17.20;;;1.90;99.90;;;;;;2614356;54;20490;-71
2023/01/22 13:11:36;;;;;;;22.40;17.80;;;2.00;99.90;;;;;;2614179;54;20366;-72
2023/01/22 13:17:28;;;;;;;27.30;19.27;;;2.00;99.90;;;;;;2613623;54;20378;-71
2023/01/22 13:23:17;;;;;;;27.70;20.77;;;2.00;99.90;;;;;;2614173;54;20362;-72
2023/01/22 13:35:43;;;;;;;25.27;20.17;;;2.00;99.90;;;;;;2613340;54;20378;-71
2023/01/22 13:41:36;;;;;;;25.20;18.57;;;2.00;99.90;;;;;;2611796;54;20459;-71
2023/01/22 13:53:44;;;;;;;26.80;19.93;;;2.00;99.90;;;;;;2613203;54;20420;-71
2023/01/22 13:59:34;;;;;;;27.10;19.10;;;2.00;99.90;;;;;;2612920;46;20382;-72
2023/01/22 14:05:24;;;;;;;28.80;19.80;;;2.00;99.90;;;;;;2612646;39;20783;-73
2023/01/22 14:11:12;;;;;;;24.17;19.40;;;2.00;99.90;;;;;;2612530;54;20399;-72
2023/01/22 14:17:00;;;;;;;26.93;18.30;;;2.00;99.90;;;;;;2613033;54;20393;-71
2023/01/22 14:22:47;;;;;;;23.90;18.43;;;2.00;99.90;;;;;;2612916;54;20126;-71
2023/01/22 14:28:35;;;;;;;24.60;17.70;;;2.00;99.90;;;;;;2613095;54;20122;-72
2023/01/22 14:34:23;;;;;;;27.97;19.47;;;2.00;99.90;;;;;;2614505;54;20383;-72
2023/01/22 14:40:12;;;;;;;23.47;17.00;;;2.00;99.90;;;;;;2614447;54;20125;-72
2023/01/22 14:46:00;;;;;;;27.87;18.07;;;2.10;99.90;;;;;;2612389;54;20413;-72
2023/01/22 14:51:50;;;;;;;35.40;21.13;;;2.00;99.90;;;;;;2613529;54;20161;-71
2023/01/22 14:57:38;;;;;;;33.23;21.37;;;2.00;99.90;;;;;;2612876;54;20386;-71
2023/01/22 15:03:28;;;;;;;98.13;52.00;;;2.00;99.90;;;;;;2611825;54;20187;-73
2023/01/22 15:09:16;;;;;;;31.47;21.90;;;2.00;99.90;;;;;;2612255;54;20416;-72
2023/01/22 15:15:05;;;;;;;36.60;27.27;;;2.00;99.90;;;;;;2611406;54;20705;-71
2023/01/22 15:20:52;;;;;;;26.87;19.93;;;2.00;99.90;;;;;;2612222;54;20424;-72
2023/01/22 15:26:40;;;;;;;36.27;21.67;;;1.90;99.90;;;;;;2611807;54;20131;-71
2023/01/22 15:32:29;;;;;;;31.13;22.23;;;2.00;99.90;;;;;;2612263;54;20386;-70
2023/01/22 15:38:17;;;;;;;26.60;17.30;;;1.90;99.90;;;;;;2611212;54;20379;-71
2023/01/22 15:44:05;;;;;;;31.13;21.63;;;1.90;99.90;;;;;;2611336;54;20656;-71
2023/01/22 15:49:53;;;;;;;25.00;18.23;;;1.90;99.90;;;;;;2612925;39;20928;-72
2023/01/22 15:55:48;;;;;;;30.13;22.03;;;1.90;99.90;;;;;;2612272;54;20130;-71
2023/01/22 16:01:36;;;;;;;27.43;20.10;;;1.90;99.90;;;;;;2613389;54;20410;-71
2023/01/22 16:10:51;;;;;;;28.97;19.73;;;1.80;99.90;;;;;;2613200;46;20434;-71
2023/01/22 16:16:39;;;;;;;35.87;22.50;;;1.80;99.90;;;;;;2614479;54;20366;-72
2023/01/22 16:22:27;;;;;;;29.87;19.97;;;1.80;99.90;;;;;;2614647;54;20151;-72
2023/01/22 16:28:15;;;;;;;35.93;24.53;;;1.70;99.90;;;;;;2611866;54;20203;-71
2023/01/22 16:34:12;;;;;;;31.97;20.20;;;1.80;99.90;;;;;;2613851;54;20134;-71
2023/01/22 16:39:59;;;;;;;32.00;19.07;;;1.80;99.90;;;;;;2614107;54;20391;-71
2023/01/22 16:45:47;;;;;;;34.10;20.67;;;1.80;99.90;;;;;;2613983;54;20164;-71
2023/01/22 16:48:50;;;;;;;36.17;21.17;;;1.80;99.90;;;;;;2613461;54;20427;-71
2023/01/22 16:51:21;;;;;;;31.33;20.03;;;1.80;99.90;;;;;;2613947;54;20185;-71
2023/01/22 16:57:08;;;;;;;38.47;21.20;;;1.80;99.90;;;;;;2614506;39;20818;-71
2023/01/22 17:02:58;;;;;;;29.93;18.90;;;1.80;99.90;;;;;;2613433;54;20242;-71
2023/01/22 17:06:19;;;;;;;35.83;21.60;;;1.80;99.90;;;;;;2611680;54;20408;-72
2023/01/22 17:08:44;;;;;;;37.17;24.30;;;1.80;99.90;;;;;;2612528;54;20407;-71
2023/01/22 17:14:37;;;;;;;34.97;21.00;;;1.80;99.90;;;;;;2614035;54;20179;-71
2023/01/22 17:20:24;;;;;;;34.43;23.80;;;1.80;99.90;;;;;;2614094;54;20844;-71
2023/01/22 17:26:14;;;;;;;33.57;20.57;;;1.80;99.90;;;;;;2610544;54;20138;-71
2023/01/22 17:32:02;;;;;;;35.20;19.33;;;1.80;99.90;;;;;;2613657;54;20422;-71
2023/01/22 17:37:50;;;;;;;32.53;20.37;;;1.90;99.90;;;;;;2612737;54;20408;-71
2023/01/22 17:43:38;;;;;;;32.47;20.47;;;1.90;99.90;;;;;;2611742;54;20287;-71
2023/01/22 17:49:26;;;;;;;35.70;20.30;;;1.90;99.90;;;;;;2609058;54;20692;-71
2023/01/22 17:55:14;;;;;;;35.23;21.40;;;1.90;99.90;;;;;;2610649;54;20158;-71
2023/01/22 18:01:06;;;;;;;32.43;20.23;;;1.90;99.90;;;;;;2612450;54;20139;-71
2023/01/22 18:10:51;;;;;;;38.43;22.30;;;1.90;99.90;;;;;;2611780;54;20515;-73
2023/01/22 18:16:42;;;;;;;33.80;20.13;;;2.00;99.90;;;;;;2612200;54;20444;-71
2023/01/22 18:22:30;;;;;;;34.77;22.80;;;2.00;99.90;;;;;;2606642;54;20460;-70
2023/01/22 18:28:19;;;;;;;35.73;20.67;;;2.00;99.90;;;;;;2612156;54;20152;-72
2023/01/22 18:34:51;;;;;;;49.07;23.30;;;2.00;99.90;;;;;;2612985;54;20418;-76
2023/01/22 18:40:39;;;;;;;29.20;18.03;;;2.00;99.90;;;;;;2614418;54;20387;-75
2023/01/22 18:46:29;;;;;;;32.53;20.33;;;2.00;99.90;;;;;;2615851;39;20850;-76
2023/01/22 18:52:17;;;;;;;41.53;22.10;;;2.00;99.90;;;;;;2613450;54;20402;-76
2023/01/22 18:58:07;;;;;;;37.60;22.27;;;2.10;99.90;;;;;;2615195;54;20147;-75
2023/01/22 19:03:58;;;;;;;28.57;18.97;;;2.10;99.90;;;;;;2615260;54;20415;-76
2023/01/22 19:09:46;;;;;;;26.77;19.77;;;2.10;99.90;;;;;;2616315;54;20394;-76
2023/01/22 19:15:34;;;;;;;28.60;20.23;;;2.10;99.90;;;;;;2616485;54;20367;-75
2023/01/22 19:21:22;;;;;;;32.07;20.90;;;2.10;99.90;;;;;;2615555;54;20135;-75
2023/01/22 19:27:11;;;;;;;40.60;23.67;;;2.10;99.90;;;;;;2616087;54;20403;-74
2023/01/22 19:30:15;;;;;;;35.23;23.40;;;2.10;99.90;;;;;;2616054;39;20781;-76
2023/01/22 19:36:23;;;;;;;31.47;21.87;;;2.10;99.90;;;;;;2617305;54;20484;-75
2023/01/22 19:42:10;;;;;;;39.30;21.67;;;2.10;99.90;;;;;;2615803;54;20550;-75
2023/01/22 19:47:58;;;;;;;38.47;22.67;;;2.10;99.90;;;;;;2617314;54;20145;-77
2023/01/22 19:53:47;;;;;;;45.53;22.57;;;2.10;99.90;;;;;;2616807;54;20153;-75
2023/01/22 19:56:24;;;;;;;37.07;22.00;;;2.10;99.90;;;;;;2616688;54;20419;-76
2023/01/22 19:58:55;;;;;;;43.63;22.40;;;2.10;99.90;;;;;;2616596;47;20429;-76
2023/01/22 20:04:42;;;;;;;40.33;23.13;;;2.10;99.90;;;;;;2617105;54;20370;-75
2023/01/22 20:10:31;;;;;;;41.03;22.60;;;2.10;99.90;;;;;;2616253;54;20151;-76
2023/01/22 20:16:23;;;;;;;46.20;26.27;;;2.10;99.90;;;;;;2617584;39;20817;-76
2023/01/22 20:22:10;;;;;;;43.87;22.47;;;2.10;99.90;;;;;;2617530;54;20387;-76
2023/01/22 20:27:58;;;;;;;47.50;26.00;;;2.10;99.90;;;;;;2617767;39;20750;-77
2023/01/22 20:37:08;;;;;;;40.30;24.87;;;2.10;99.90;;;;;;2616937;54;20426;-77
2023/01/22 20:42:55;;;;;;;45.83;24.60;;;2.10;99.90;;;;;;2614383;54;20146;-76
2023/01/22 20:45:21;;;;;;;48.93;24.13;;;2.10;99.90;;;;;;2614038;47;20546;-77
2023/01/22 20:47:47;;;;;;;43.33;23.70;;;2.10;99.90;;;;;;2613750;54;20154;-77
2023/01/22 20:53:34;;;;;;;57.20;27.27;;;2.00;99.90;;;;;;2614781;54;20166;-76
2023/01/22 20:59:24;;;;;;;48.33;25.47;;;2.00;99.90;;;;;;2615609;54;20898;-75
2023/01/22 21:05:12;;;;;;;50.80;26.90;;;2.00;99.90;;;;;;2616133;54;20390;-76
2023/01/22 21:11:03;;;;;;;49.97;25.27;;;2.00;99.90;;;;;;2616270;54;20130;-77
2023/01/22 21:16:51;;;;;;;59.37;29.50;;;2.00;99.90;;;;;;2617728;31;20797;-76
2023/01/22 21:22:41;;;;;;;42.40;25.80;;;2.10;99.90;;;;;;2616395;54;20416;-76
2023/01/22 21:28:28;;;;;;;55.17;26.70;;;2.10;99.90;;;;;;2614972;54;20423;-76
2023/01/22 21:37:38;;;;;;;55.60;26.37;;;2.10;99.90;;;;;;2615992;54;20535;-75
2023/01/22 21:49:33;;;;;;;53.33;27.60;;;2.20;99.90;;;;;;2616380;54;20410;-76
2023/01/22 21:55:22;;;;;;;53.17;28.07;;;2.20;99.90;;;;;;2616633;54;20909;-76
2023/01/22 22:01:14;;;;;;;40.13;24.60;;;2.20;99.90;;;;;;2613971;39;20781;-76
2023/01/22 22:07:02;;;;;;;36.20;23.20;;;2.20;99.90;;;;;;2616239;54;20389;-75
2023/01/22 22:12:52;;;;;;;42.30;24.60;;;2.20;99.90;;;;;;2615868;54;20387;-76
2023/01/22 22:18:39;;;;;;;40.00;23.90;;;2.20;99.90;;;;;;2615291;54;20415;-76
2023/01/22 22:24:27;;;;;;;43.37;25.80;;;2.20;99.90;;;;;;2616163;39;20513;-76
2023/01/22 22:30:15;;;;;;;38.37;24.70;;;2.20;99.90;;;;;;2612659;54;20130;-75
2023/01/22 22:33:08;;;;;;;46.30;25.07;;;2.30;99.90;;;;;;2614164;54;20436;-76
2023/01/22 22:35:33;;;;;;;45.93;24.03;;;2.30;99.90;;;;;;2616108;54;20395;-76
2023/01/22 22:41:27;;;;;;;39.07;24.47;;;2.30;99.90;;;;;;2615955;39;20628;-76
2023/01/22 22:47:14;;;;;;;43.97;22.97;;;2.30;99.90;;;;;;2616678;39;21068;-75
2023/01/22 22:50:18;;;;;;;40.27;24.40;;;2.30;99.90;;;;;;2615298;54;20403;-76
2023/01/22 22:52:43;;;;;;;44.40;24.03;;;2.30;99.90;;;;;;2615316;39;20842;-76
2023/01/22 22:58:32;;;;;;;43.13;23.80;;;2.30;99.90;;;;;;2614915;54;20158;-75
2023/01/22 23:04:19;;;;;;;32.97;21.80;;;2.40;99.90;;;;;;2614825;54;20423;-78
2023/01/22 23:20:08;;;;;;;33.37;21.60;;;2.40;99.90;;;;;;2613971;39;20751;-75
2023/01/22 23:25:55;;;;;;;36.90;23.20;;;2.50;99.90;;;;;;2614383;54;20445;-74
2023/01/22 23:31:43;;;;;;;34.80;20.80;;;2.50;99.90;;;;;;2615167;31;20580;-75
2023/01/22 23:37:30;;;;;;;31.93;21.17;;;2.40;99.90;;;;;;2614209;54;20508;-75
2023/01/22 23:43:17;;;;;;;33.07;21.90;;;2.50;99.90;;;;;;2614406;54;20161;-79
2023/01/22 23:49:05;;;;;;;32.03;21.10;;;2.40;99.90;;;;;;2615502;54;20147;-76
2023/01/22 23:54:53;;;;;;;35.63;21.20;;;2.50;99.90;;;;;;2615050;54;20131;-76
